Time;durP1;ratioP1;P1;durP2;ratioP2;P2;SDS_P1;SDS_P2;PMS_P1;PMS_P2;Temp;Humidity;BMP_temperature;BMP_pressure;BME280_temperature;BME280_humidity;BME280_pressure;Samples;Min_cycle;Max_cycle;Signal;HPM_P1;HPM_P2
2021/01/22 00:01:36;;;;;;;2.63;0.20;;;8.40;99.90;;;;;;4913754;29;20079;-94
2021/01/22 00:04:02;;;;;;;1.27;0.32;;;8.50;99.90;;;;;;4897898;29;20063;-93
2021/01/22 00:06:28;;;;;;;3.88;0.30;;;8.40;99.90;;;;;;4898899;29;20032;-94
2021/01/22 00:08:54;;;;;;;0.63;0.20;;;8.40;99.90;;;;;;4913718;29;20072;-94
2021/01/22 00:11:20;;;;;;;1.50;0.20;;;8.40;99.90;;;;;;4898257;29;20036;-91
2021/01/22 00:13:45;;;;;;;1.50;0.20;;;8.40;99.90;;;;;;4898037;29;20024;-92
2021/01/22 00:16:11;;;;;;;1.40;0.20;;;8.40;99.90;;;;;;4898028;29;20493;-90
2021/01/22 00:18:37;;;;;;;1.60;0.45;;;8.00;99.90;;;;;;4897940;29;20047;-90
2021/01/22 00:21:03;;;;;;;0.73;0.30;;;6.80;99.90;;;;;;4908937;29;20451;-90
2021/01/22 00:23:29;;;;;;;0.50;0.20;;;5.90;99.90;;;;;;4984506;28;20086;-90
2021/01/22 00:25:55;;;;;;;0.82;0.20;;;5.40;99.90;;;;;;4984329;28;20516;-93
2021/01/22 00:28:21;;;;;;;0.80;0.30;;;5.20;99.90;;;;;;4984327;28;20032;-90
2021/01/22 00:30:46;;;;;;;1.25;0.35;;;5.20;99.90;;;;;;4983409;28;20039;-90
2021/01/22 00:33:12;;;;;;;0.73;0.25;;;5.00;99.90;;;;;;4968328;29;20034;-91
2021/01/22 00:35:38;;;;;;;0.60;0.40;;;5.00;99.90;;;;;;4968490;29;20126;-92
2021/01/22 00:38:04;;;;;;;0.68;0.30;;;4.90;99.90;;;;;;4967864;29;20038;-90
2021/01/22 00:40:29;;;;;;;3.20;0.30;;;4.80;99.90;;;;;;4968093;28;20054;-89
2021/01/22 00:42:55;;;;;;;1.02;0.30;;;4.80;99.90;;;;;;4994654;23;20051;-89
2021/01/22 00:45:21;;;;;;;0.55;0.30;;;4.70;99.90;;;;;;4988648;28;20050;-91
2021/01/22 00:47:47;;;;;;;0.57;0.30;;;4.60;99.90;;;;;;5005083;28;20035;-93
2021/01/22 00:50:13;;;;;;;1.20;0.40;;;4.60;99.90;;;;;;5008898;28;20041;-91
2021/01/22 00:52:38;;;;;;;0.65;0.38;;;4.60;99.90;;;;;;4998593;28;20030;-90
2021/01/22 00:55:06;;;;;;;1.25;0.50;;;4.50;99.90;;;;;;5006647;28;20034;-91
2021/01/22 00:57:50;;;;;;;2.90;0.70;;;4.40;99.90;;;;;;5006714;28;20061;-91
2021/01/22 01:00:18;;;;;;;1.35;0.50;;;4.30;99.90;;;;;;4990612;28;20058;-91
2021/01/22 01:02:54;;;;;;;1.92;0.50;;;4.30;99.90;;;;;;4991819;28;20151;-89
2021/01/22 01:05:21;;;;;;;0.95;0.40;;;4.20;99.90;;;;;;4990288;28;20058;-92
2021/01/22 01:07:47;;;;;;;1.10;0.32;;;4.10;99.90;;;;;;4990223;28;20030;-90
2021/01/22 01:10:14;;;;;;;2.38;0.40;;;4.10;99.90;;;;;;5006507;28;20046;-90
2021/01/22 01:12:58;;;;;;;0.75;0.30;;;4.00;99.90;;;;;;5006271;28;20449;-89
2021/01/22 01:15:53;;;;;;;1.13;0.17;;;3.80;99.90;;;;;;5006014;28;20053;-90
2021/01/22 01:18:18;;;;;;;1.42;0.20;;;3.70;99.90;;;;;;4989814;28;20482;-89
2021/01/22 01:20:44;;;;;;;0.60;0.20;;;3.60;99.90;;;;;;4989847;28;20030;-90
2021/01/22 01:23:14;;;;;;;1.60;0.28;;;3.60;99.90;;;;;;4989939;28;20057;-89
2021/01/22 01:25:43;;;;;;;;;;;3.60;99.90;;;;;;4990190;28;20045;-90
2021/01/22 01:28:09;;;;;;;0.40;0.13;;;3.50;99.90;;;;;;4989616;28;19909;-90
2021/01/22 01:30:35;;;;;;;0.68;0.15;;;3.40;99.90;;;;;;4989099;28;20035;-90
2021/01/22 01:33:01;;;;;;;0.65;0.20;;;3.40;99.90;;;;;;4967062;29;20042;-90
2021/01/22 01:35:28;;;;;;;0.40;0.15;;;3.40;99.90;;;;;;4967167;29;20039;-89
2021/01/22 01:37:54;;;;;;;1.50;0.20;;;3.50;99.90;;;;;;4967153;29;20121;-91
2021/01/22 01:40:19;;;;;;;0.63;0.30;;;3.50;99.90;;;;;;4966953;29;20066;-91
2021/01/22 01:42:45;;;;;;;1.00;0.30;;;3.50;99.90;;;;;;4982737;28;20035;-92
2021/01/22 01:45:12;;;;;;;1.00;0.35;;;3.50;99.90;;;;;;4966876;29;20050;-92
2021/01/22 01:47:38;;;;;;;0.82;0.30;;;3.40;99.90;;;;;;4966862;29;20031;-90
2021/01/22 01:50:04;;;;;;;2.20;0.30;;;3.40;99.90;;;;;;4966808;29;20066;-90
2021/01/22 01:52:30;;;;;;;1.45;0.30;;;3.50;99.90;;;;;;5002124;28;20030;-91
2021/01/22 01:54:58;;;;;;;1.67;0.40;;;3.50;99.90;;;;;;4989659;28;20054;-91
2021/01/22 01:57:24;;;;;;;1.13;0.35;;;3.40;99.90;;;;;;4989647;28;20089;-90
2021/01/22 01:59:50;;;;;;;1.52;0.40;;;3.50;99.90;;;;;;4989275;28;20037;-91
2021/01/22 02:02:17;;;;;;;1.00;0.32;;;3.50;99.90;;;;;;4989241;28;20038;-90
2021/01/22 02:04:42;;;;;;;3.35;0.40;;;3.50;99.90;;;;;;4989364;28;20038;-92
2021/01/22 02:07:09;;;;;;;1.67;0.40;;;3.60;99.90;;;;;;4990016;28;20057;-92
2021/01/22 02:09:35;;;;;;;1.10;0.30;;;3.60;99.90;;;;;;4989670;28;20050;-90
2021/01/22 02:12:01;;;;;;;1.10;0.40;;;3.60;99.90;;;;;;4989349;28;20035;-91
2021/01/22 02:14:29;;;;;;;1.77;0.40;;;3.60;99.90;;;;;;4989052;28;20038;-90
2021/01/22 02:16:57;;;;;;;2.00;0.55;;;3.60;99.90;;;;;;4989358;28;20057;-92
2021/01/22 02:19:42;;;;;;;2.83;0.50;;;3.60;99.90;;;;;;4989420;28;20484;-92
2021/01/22 02:22:08;;;;;;;2.97;0.50;;;3.60;99.90;;;;;;4989356;28;20077;-92
2021/01/22 02:24:34;;;;;;;1.83;0.60;;;3.70;99.90;;;;;;4989406;28;20042;-92
2021/01/22 02:27:05;;;;;;;2.25;0.93;;;3.60;99.90;;;;;;4989373;28;20031;-92
2021/01/22 02:29:32;;;;;;;4.55;1.48;;;3.60;99.90;;;;;;5005061;28;20098;-92
2021/01/22 02:32:02;;;;;;;2.92;0.90;;;3.70;99.90;;;;;;4989153;28;20113;-91
2021/01/22 02:34:30;;;;;;;;;;;3.60;99.90;;;;;;4989627;28;20037;-92
2021/01/22 02:37:00;;;;;;;4.43;1.83;;;3.60;99.90;;;;;;4989313;28;19910;-91
2021/01/22 02:39:31;;;;;;;2.00;0.90;;;3.60;99.90;;;;;;4988906;28;20045;-92
2021/01/22 02:42:19;;;;;;;3.42;1.23;;;3.60;99.90;;;;;;4989073;28;20058;-89
2021/01/22 02:44:45;;;;;;;4.22;1.60;;;3.70;99.90;;;;;;4952018;28;20074;-90
2021/01/22 02:47:14;;;;;;;4.40;1.88;;;3.60;99.90;;;;;;4952852;28;20045;-91
2021/01/22 02:49:39;;;;;;;6.93;3.25;;;3.70;99.90;;;;;;4952441;28;20038;-92
2021/01/22 02:52:06;;;;;;;4.35;2.00;;;3.70;99.90;;;;;;4943334;29;20050;-92
2021/01/22 02:54:32;;;;;;;4.15;1.90;;;3.70;99.90;;;;;;4932654;29;20035;-91
2021/01/22 02:57:05;;;;;;;6.15;3.08;;;3.70;99.90;;;;;;4933833;29;20036;-90
2021/01/22 02:59:39;;;;;;;6.18;2.65;;;3.70;99.90;;;;;;4933663;29;20152;-92
2021/01/22 03:02:17;;;;;;;4.07;2.03;;;3.70;99.90;;;;;;4933832;29;20524;-92
2021/01/22 03:04:43;;;;;;;4.47;2.30;;;3.70;99.90;;;;;;4933650;29;20059;-91
2021/01/22 03:07:12;;;;;;;6.05;3.38;;;3.60;99.90;;;;;;4933935;29;20068;-92
2021/01/22 03:09:45;;;;;;;6.70;2.78;;;3.60;99.90;;;;;;4933407;29;20044;-90
2021/01/22 03:12:12;;;;;;;5.65;3.15;;;3.60;99.90;;;;;;4933449;29;20027;-92
2021/01/22 03:14:39;;;;;;;5.05;2.88;;;3.60;99.90;;;;;;4933324;29;20046;-90
2021/01/22 03:17:06;;;;;;;6.07;3.13;;;3.50;99.90;;;;;;4933449;29;20050;-91
2021/01/22 03:19:47;;;;;;;5.88;4.00;;;3.50;99.90;;;;;;4933320;29;20027;-91
2021/01/22 03:22:14;;;;;;;6.63;3.22;;;3.50;99.90;;;;;;4941086;29;20050;-92
2021/01/22 03:24:41;;;;;;;7.45;3.42;;;3.40;99.90;;;;;;4969193;29;20043;-91
2021/01/22 03:27:07;;;;;;;8.75;5.28;;;3.40;99.90;;;;;;4969437;29;20111;-92
2021/01/22 03:29:34;;;;;;;7.43;4.70;;;3.40;99.90;;;;;;4974321;28;20034;-91
2021/01/22 03:32:00;;;;;;;9.48;5.03;;;3.30;99.90;;;;;;4972531;28;20034;-92
2021/01/22 03:34:26;;;;;;;7.22;4.78;;;3.30;99.90;;;;;;4988693;28;20042;-91
2021/01/22 03:37:00;;;;;;;5.53;3.50;;;3.30;99.90;;;;;;4972384;28;20031;-91
2021/01/22 03:39:27;;;;;;;6.10;3.55;;;3.30;99.90;;;;;;4971846;28;20031;-91
2021/01/22 03:42:13;;;;;;;5.63;3.22;;;3.20;99.90;;;;;;4972360;28;20030;-91
2021/01/22 03:44:39;;;;;;;6.40;2.83;;;3.10;99.90;;;;;;4898219;29;20087;-92
2021/01/22 03:47:06;;;;;;;5.82;3.13;;;3.20;99.90;;;;;;4901984;29;20055;-92
2021/01/22 03:49:32;;;;;;;4.72;2.75;;;3.10;99.90;;;;;;4902878;29;20072;-91
2021/01/22 03:51:59;;;;;;;7.50;3.63;;;3.10;99.90;;;;;;4899658;29;20028;-92
2021/01/22 03:54:25;;;;;;;6.18;3.50;;;3.20;99.90;;;;;;4898690;29;20497;-91
2021/01/22 03:56:51;;;;;;;5.07;2.60;;;3.30;99.90;;;;;;4898593;29;20063;-91
2021/01/22 03:59:17;;;;;;;6.35;3.67;;;3.40;99.90;;;;;;4913736;29;20044;-92
2021/01/22 04:01:42;;;;;;;8.85;4.82;;;3.40;99.90;;;;;;4898330;29;20040;-92
2021/01/22 04:04:08;;;;;;;5.32;3.47;;;3.30;99.90;;;;;;4897984;29;20040;-92
2021/01/22 04:06:35;;;;;;;5.15;2.88;;;3.40;99.90;;;;;;4897581;29;20059;-92
2021/01/22 04:09:01;;;;;;;5.88;4.10;;;3.30;99.90;;;;;;4898033;29;20041;-91
2021/01/22 04:11:27;;;;;;;8.25;5.28;;;3.30;99.90;;;;;;4897864;29;20123;-92
2021/01/22 04:13:53;;;;;;;5.78;3.28;;;3.30;99.90;;;;;;4913630;29;20545;-92
2021/01/22 04:16:18;;;;;;;8.00;3.88;;;3.20;99.90;;;;;;4897885;29;20047;-91
2021/01/22 04:18:44;;;;;;;6.68;3.63;;;3.20;99.90;;;;;;4897848;29;20040;-90
2021/01/22 04:21:10;;;;;;;8.52;5.75;;;3.10;99.90;;;;;;4910677;29;20073;-91
2021/01/22 04:23:35;;;;;;;8.63;4.53;;;3.10;99.90;;;;;;4952466;29;20039;-91
2021/01/22 04:26:02;;;;;;;6.65;3.95;;;3.10;99.90;;;;;;4952248;29;20039;-92
2021/01/22 04:28:28;;;;;;;8.85;3.70;;;3.10;99.90;;;;;;4952678;29;20027;-93
2021/01/22 04:30:54;;;;;;;8.45;4.63;;;3.10;99.90;;;;;;4984422;28;20094;-92
2021/01/22 04:33:19;;;;;;;7.38;3.72;;;3.10;99.90;;;;;;4987934;28;20031;-90
2021/01/22 04:35:45;;;;;;;10.10;4.43;;;3.10;99.90;;;;;;4971655;28;20043;-92
2021/01/22 04:38:11;;;;;;;6.78;3.60;;;3.00;99.90;;;;;;4971674;28;20041;-92
2021/01/22 04:40:37;;;;;;;6.10;3.80;;;3.00;99.90;;;;;;4987662;28;20066;-92
2021/01/22 04:43:07;;;;;;;6.25;3.85;;;3.00;99.90;;;;;;4971422;28;20045;-92
2021/01/22 04:45:36;;;;;;;;;;;3.00;99.90;;;;;;4971395;28;20075;-92
2021/01/22 04:48:04;;;;;;;5.40;2.70;;;3.00;99.90;;;;;;4987244;28;19910;-91
2021/01/22 04:50:31;;;;;;;5.47;2.55;;;3.00;99.90;;;;;;4970872;28;20042;-92
2021/01/22 04:53:01;;;;;;;5.72;3.28;;;3.10;99.90;;;;;;4971120;28;20042;-91
2021/01/22 04:55:28;;;;;;;7.13;3.10;;;3.00;99.90;;;;;;4971080;28;20070;-92
2021/01/22 04:57:56;;;;;;;5.28;3.03;;;3.00;99.90;;;;;;4971082;28;20115;-92
2021/01/22 05:00:25;;;;;;;4.93;2.83;;;3.00;99.90;;;;;;4987034;28;20035;-92
2021/01/22 05:02:54;;;;;;;5.25;2.20;;;3.00;99.90;;;;;;4970808;28;20034;-93
2021/01/22 05:05:21;;;;;;;7.25;3.53;;;2.90;99.90;;;;;;4986904;28;20050;-92
2021/01/22 05:07:47;;;;;;;4.80;2.95;;;2.90;99.90;;;;;;4987312;28;20096;-92
2021/01/22 05:10:13;;;;;;;6.20;3.13;;;3.00;99.90;;;;;;4970901;28;20031;-91
2021/01/22 05:12:41;;;;;;;7.82;4.07;;;2.90;99.90;;;;;;4986963;28;20525;-92
2021/01/22 05:15:20;;;;;;;7.38;4.95;;;3.10;99.90;;;;;;4970607;28;20039;-92
2021/01/22 05:18:03;;;;;;;13.43;7.13;;;3.00;99.90;;;;;;4986444;28;20098;-90
2021/01/22 05:20:40;;;;;;;9.38;7.05;;;3.10;99.90;;;;;;4970439;28;20034;-91
2021/01/22 05:23:08;;;;;;;13.38;9.80;;;3.10;99.90;;;;;;4970832;28;20041;-91
2021/01/22 05:26:04;;;;;;;11.23;8.00;;;3.20;99.90;;;;;;4970433;28;20046;-92
2021/01/22 05:28:44;;;;;;;15.90;10.50;;;3.20;99.90;;;;;;4970486;28;20034;-91
2021/01/22 05:31:12;;;;;;;16.45;11.07;;;3.30;99.90;;;;;;4968402;28;20035;-92
2021/01/22 05:33:40;;;;;;;13.50;9.52;;;3.30;99.90;;;;;;4967272;29;20070;-91
2021/01/22 05:36:26;;;;;;;18.98;12.40;;;3.40;99.90;;;;;;4967227;29;20031;-90
2021/01/22 05:38:57;;;;;;;18.73;11.70;;;3.40;99.90;;;;;;4967282;29;20027;-92
2021/01/22 05:41:23;;;;;;;22.33;15.02;;;3.40;99.90;;;;;;4966079;29;20059;-90
2021/01/22 05:43:50;;;;;;;17.40;10.90;;;3.50;99.90;;;;;;4966989;29;20105;-92
2021/01/22 05:46:23;;;;;;;18.95;11.07;;;3.50;99.90;;;;;;4966761;29;20046;-92
2021/01/22 05:49:07;;;;;;;18.00;11.85;;;3.40;99.90;;;;;;4967050;29;20031;-91
2021/01/22 05:51:33;;;;;;;21.65;14.55;;;3.40;99.90;;;;;;4970347;28;20063;-91
2021/01/22 05:53:59;;;;;;;22.90;15.50;;;3.40;99.90;;;;;;4989611;28;20041;-91
2021/01/22 05:56:25;;;;;;;19.73;13.98;;;3.40;99.90;;;;;;4989625;28;20022;-92
2021/01/22 05:58:51;;;;;;;21.38;14.48;;;3.50;99.90;;;;;;5005767;28;20040;-91
2021/01/22 06:01:18;;;;;;;20.92;12.85;;;3.50;99.90;;;;;;4989374;28;20041;-92
2021/01/22 06:03:46;;;;;;;21.17;12.90;;;3.50;99.90;;;;;;4989565;28;20092;-91
2021/01/22 06:06:12;;;;;;;18.27;11.43;;;3.50;99.90;;;;;;4989397;28;20035;-92
2021/01/22 06:08:51;;;;;;;18.05;11.80;;;3.50;99.90;;;;;;4975942;28;20089;-96
2021/01/22 06:11:22;;;;;;;23.05;14.43;;;3.40;99.90;;;;;;4969713;28;20082;-94
2021/01/22 06:13:50;;;;;;;23.63;14.07;;;3.40;99.90;;;;;;5002521;28;20041;-93
2021/01/22 06:16:21;;;;;;;21.25;12.73;;;3.40;99.90;;;;;;4985965;28;20043;-93
2021/01/22 06:18:55;;;;;;;22.42;12.82;;;3.40;99.90;;;;;;4986205;28;20038;-94
2021/01/22 06:21:38;;;;;;;22.80;14.52;;;3.50;99.90;;;;;;5001753;28;20037;-93
2021/01/22 06:24:06;;;;;;;25.08;13.40;;;3.50;99.90;;;;;;4985610;28;20039;-93
2021/01/22 06:26:39;;;;;;;21.75;13.98;;;3.50;99.90;;;;;;4985664;28;20038;-94
2021/01/22 06:29:10;;;;;;;24.80;14.10;;;3.40;99.90;;;;;;4988128;28;20043;-93
2021/01/22 06:31:40;;;;;;;24.13;14.68;;;3.50;99.90;;;;;;4973052;28;20035;-94
2021/01/22 06:34:06;;;;;;;22.85;13.63;;;3.50;99.90;;;;;;4989718;28;20034;-95
2021/01/22 06:36:32;;;;;;;28.30;15.05;;;3.40;99.90;;;;;;4990457;28;20031;-96
2021/01/22 06:39:01;;;;;;;24.20;13.73;;;3.50;99.90;;;;;;5006256;28;20077;-95
2021/01/22 06:41:29;;;;;;;24.95;15.30;;;3.50;99.90;;;;;;5007440;28;20042;-95
2021/01/22 06:43:58;;;;;;;29.90;15.00;;;3.60;99.90;;;;;;4990822;28;20086;-95
2021/01/22 06:46:34;;;;;;;22.10;12.53;;;3.60;99.90;;;;;;4992365;28;20042;-93
2021/01/22 06:49:05;;;;;;;21.30;11.43;;;3.50;99.90;;;;;;4991166;28;20069;-96
2021/01/22 06:51:35;;;;;;;23.45;13.82;;;3.40;99.90;;;;;;4992394;28;20043;-96
2021/01/22 06:54:20;;;;;;;23.10;12.68;;;3.40;99.90;;;;;;4994455;28;20041;-96
2021/01/22 06:56:54;;;;;;;22.60;12.75;;;3.40;99.90;;;;;;4992606;28;20031;-95
2021/01/22 06:59:20;;;;;;;21.10;11.95;;;3.30;99.90;;;;;;4974856;28;20031;-95
2021/01/22 07:01:47;;;;;;;24.83;14.50;;;3.30;99.90;;;;;;4989981;28;20061;-95
2021/01/22 07:04:38;;;;;;;20.73;12.48;;;3.30;99.90;;;;;;4990429;28;20026;-96
2021/01/22 07:07:05;;;;;;;20.83;12.85;;;3.30;99.90;;;;;;4990320;28;20038;-96
2021/01/22 07:09:43;;;;;;;23.60;13.23;;;3.30;99.90;;;;;;4991530;28;20023;-96
2021/01/22 07:12:10;;;;;;;19.17;12.48;;;3.20;99.90;;;;;;4992864;28;20046;-96
2021/01/22 07:14:41;;;;;;;21.63;13.82;;;3.30;99.90;;;;;;4992299;28;20034;-92
2021/01/22 07:17:28;;;;;;;17.60;11.65;;;3.30;99.90;;;;;;4993415;28;20034;-96
2021/01/22 07:20:09;;;;;;;23.52;12.80;;;3.20;99.90;;;;;;4990133;28;20031;-93
2021/01/22 07:22:48;;;;;;;29.38;15.65;;;3.20;99.90;;;;;;4991249;28;20154;-93
2021/01/22 07:25:29;;;;;;;27.25;13.80;;;3.20;99.90;;;;;;4990238;28;20491;-95
2021/01/22 07:27:54;;;;;;;22.23;13.18;;;3.20;99.90;;;;;;4989047;28;20026;-95
2021/01/22 07:30:20;;;;;;;21.60;11.77;;;3.20;99.90;;;;;;4989843;28;20388;-94
2021/01/22 07:32:51;;;;;;;23.50;13.93;;;3.20;99.90;;;;;;4975440;28;20035;-96
2021/01/22 07:35:21;;;;;;;23.75;13.93;;;3.20;99.90;;;;;;4988527;28;20065;-94
2021/01/22 07:37:48;;;;;;;26.92;14.75;;;3.20;99.90;;;;;;4988611;28;20035;-96
2021/01/22 07:40:14;;;;;;;26.65;14.40;;;3.20;99.90;;;;;;4972440;28;20043;-95
2021/01/22 07:42:41;;;;;;;25.88;15.45;;;3.20;99.90;;;;;;4974700;28;20035;-96
2021/01/22 07:45:17;;;;;;;24.80;15.85;;;3.20;99.90;;;;;;4989539;28;20058;-95
2021/01/22 07:47:45;;;;;;;29.48;17.75;;;3.30;99.90;;;;;;4973821;28;20038;-95
2021/01/22 07:50:13;;;;;;;33.22;16.60;;;3.30;99.90;;;;;;4973535;28;20038;-95
2021/01/22 07:52:40;;;;;;;26.77;15.55;;;3.30;99.90;;;;;;4982493;28;20030;-96
2021/01/22 07:55:17;;;;;;;25.30;13.93;;;3.30;99.90;;;;;;4992762;28;20099;-96
2021/01/22 07:57:43;;;;;;;25.55;15.88;;;3.20;99.90;;;;;;4993729;28;20101;-96
2021/01/22 08:00:14;;;;;;;24.67;13.52;;;3.30;99.90;;;;;;5010449;28;20466;-96
2021/01/22 08:02:57;;;;;;;23.95;12.63;;;3.20;99.90;;;;;;4994109;28;20038;-96
2021/01/22 08:05:37;;;;;;;24.38;13.73;;;3.30;99.90;;;;;;4992257;28;20073;-96
2021/01/22 08:08:23;;;;;;;25.45;13.82;;;3.30;99.90;;;;;;5007158;28;20482;-95
2021/01/22 08:10:49;;;;;;;26.38;15.95;;;3.30;99.90;;;;;;4992063;28;20070;-96
2021/01/22 08:13:15;;;;;;;21.52;12.93;;;3.30;99.90;;;;;;4991642;28;20066;-95
2021/01/22 08:15:44;;;;;;;23.85;13.57;;;3.30;99.90;;;;;;4992367;28;20037;-96
2021/01/22 08:18:13;;;;;;;25.02;13.68;;;3.30;99.90;;;;;;4991951;28;20030;-96
2021/01/22 08:20:49;;;;;;;25.52;14.00;;;3.40;99.90;;;;;;4991568;28;20038;-96
2021/01/22 08:23:15;;;;;;;18.58;11.75;;;3.40;99.90;;;;;;4991650;28;20057;-96
2021/01/22 08:25:40;;;;;;;17.27;10.38;;;3.40;99.90;;;;;;4992049;28;20042;-96
2021/01/22 08:28:08;;;;;;;16.70;10.68;;;3.40;99.90;;;;;;4991979;28;20101;-95
2021/01/22 08:30:35;;;;;;;21.20;10.20;;;3.50;99.90;;;;;;4993868;28;20482;-96
2021/01/22 08:33:01;;;;;;;20.42;11.15;;;3.50;99.90;;;;;;4971241;28;20031;-96
2021/01/22 08:35:29;;;;;;;15.60;8.68;;;3.50;99.90;;;;;;4987609;28;20054;-95
2021/01/22 08:37:55;;;;;;;16.00;9.35;;;3.50;99.90;;;;;;4987139;28;20491;-96
2021/01/22 08:40:22;;;;;;;17.25;10.40;;;3.50;99.90;;;;;;4987094;28;20035;-96
2021/01/22 08:42:59;;;;;;;16.50;7.65;;;3.60;99.90;;;;;;4987367;28;20031;-94
2021/01/22 08:45:25;;;;;;;15.32;9.50;;;3.60;99.90;;;;;;4988077;28;20038;-92
2021/01/22 08:47:51;;;;;;;13.65;6.97;;;3.70;99.90;;;;;;4987455;28;20049;-96
2021/01/22 08:50:18;;;;;;;14.05;8.95;;;3.60;99.90;;;;;;4988115;28;20047;-96
2021/01/22 08:52:44;;;;;;;15.57;7.72;;;3.70;99.90;;;;;;4994301;28;20061;-93
2021/01/22 08:55:28;;;;;;;15.13;7.30;;;3.70;99.90;;;;;;4971143;28;20030;-96
2021/01/22 08:58:02;;;;;;;15.52;8.10;;;3.70;99.90;;;;;;4971186;28;20039;-93
2021/01/22 09:00:28;;;;;;;14.60;7.78;;;3.70;99.90;;;;;;4970415;28;20031;-96
2021/01/22 09:02:54;;;;;;;19.55;8.55;;;3.80;99.90;;;;;;4986457;28;20031;-96
2021/01/22 09:05:20;;;;;;;15.13;8.45;;;3.80;99.90;;;;;;4970903;28;20047;-96
2021/01/22 09:08:08;;;;;;;14.30;7.28;;;3.80;99.90;;;;;;4972391;28;20042;-96
2021/01/22 09:10:34;;;;;;;13.75;7.47;;;3.80;99.90;;;;;;4971260;28;20027;-95
2021/01/22 09:13:15;;;;;;;15.75;6.88;;;3.80;99.90;;;;;;4970335;28;20123;-95
2021/01/22 09:15:42;;;;;;;12.63;6.93;;;3.80;99.90;;;;;;4970192;28;20058;-95
2021/01/22 09:18:22;;;;;;;11.02;7.30;;;3.90;99.90;;;;;;4970010;28;20038;-91
2021/01/22 09:20:57;;;;;;;;;;;3.90;99.90;;;;;;4970367;28;20035;-94
2021/01/22 09:23:23;;;;;;;12.48;6.35;;;3.90;99.90;;;;;;4985922;28;19910;-93
2021/01/22 09:25:56;;;;;;;10.60;6.55;;;4.00;99.90;;;;;;4986070;28;20129;-91
2021/01/22 09:28:23;;;;;;;12.15;7.05;;;4.10;99.90;;;;;;4969656;28;20027;-94
2021/01/22 09:30:48;;;;;;;12.68;7.95;;;4.10;99.90;;;;;;4969562;28;20089;-93
2021/01/22 09:33:14;;;;;;;13.68;7.25;;;4.10;99.90;;;;;;4986057;28;20034;-93
2021/01/22 09:35:41;;;;;;;11.05;6.28;;;4.10;99.90;;;;;;4968963;28;20119;-92
2021/01/22 09:38:07;;;;;;;11.48;5.70;;;4.10;99.90;;;;;;4969211;28;20027;-93
2021/01/22 09:40:37;;;;;;;10.35;6.32;;;4.30;99.90;;;;;;4985802;28;20035;-94
2021/01/22 09:43:04;;;;;;;10.65;6.57;;;4.20;99.90;;;;;;4974065;23;20383;-93
2021/01/22 09:45:30;;;;;;;13.10;6.55;;;4.30;99.90;;;;;;4967985;29;20222;-93
2021/01/22 09:47:56;;;;;;;13.40;7.95;;;4.20;99.90;;;;;;4966842;29;20022;-93
2021/01/22 09:50:22;;;;;;;10.27;6.43;;;4.30;99.90;;;;;;4966835;28;20046;-94
2021/01/22 09:52:47;;;;;;;14.40;7.03;;;4.30;99.90;;;;;;4950947;29;20038;-93
2021/01/22 09:55:16;;;;;;;12.27;5.72;;;4.40;99.90;;;;;;4966794;28;20031;-92
2021/01/22 09:57:48;;;;;;;13.70;6.85;;;4.50;99.90;;;;;;4966816;28;20035;-93
2021/01/22 10:00:15;;;;;;;10.15;5.40;;;4.50;99.90;;;;;;4937196;28;20063;-95
2021/01/22 10:02:41;;;;;;;11.43;4.97;;;4.50;99.90;;;;;;4965843;28;20032;-93
2021/01/22 10:05:08;;;;;;;11.57;5.60;;;4.40;99.90;;;;;;4967055;29;20043;-94
2021/01/22 10:07:34;;;;;;;10.57;5.22;;;4.50;99.90;;;;;;4951756;29;20035;-93
2021/01/22 10:10:00;;;;;;;9.25;3.63;;;4.50;99.90;;;;;;4950833;29;20301;-92
2021/01/22 10:12:37;;;;;;;11.80;4.20;;;4.50;99.90;;;;;;4950117;29;20035;-92
2021/01/22 10:15:09;;;;;;;14.15;4.55;;;4.40;99.90;;;;;;4951208;29;20039;-94
2021/01/22 10:17:35;;;;;;;6.90;4.15;;;4.40;99.90;;;;;;4966462;29;20043;-94
2021/01/22 10:20:01;;;;;;;12.80;5.85;;;4.50;99.90;;;;;;4950573;29;20047;-95
2021/01/22 10:22:30;;;;;;;13.75;5.68;;;4.60;99.90;;;;;;4950417;29;20039;-94
2021/01/22 10:24:56;;;;;;;12.25;4.53;;;4.60;99.90;;;;;;4966070;29;20043;-96
2021/01/22 10:27:22;;;;;;;7.72;3.95;;;4.60;99.90;;;;;;4950319;29;20031;-94
2021/01/22 10:29:48;;;;;;;12.25;5.80;;;4.60;99.90;;;;;;4966573;28;20035;-95
2021/01/22 10:32:14;;;;;;;12.10;5.13;;;4.60;99.90;;;;;;4966241;28;20062;-94
2021/01/22 10:34:52;;;;;;;12.27;4.18;;;4.60;99.90;;;;;;4966341;28;20055;-95
2021/01/22 10:37:22;;;;;;;;;;;4.70;99.90;;;;;;4966676;28;20046;-94
2021/01/22 10:39:48;;;;;;;14.50;5.10;;;4.80;99.90;;;;;;4949959;28;19915;-95
2021/01/22 10:42:16;;;;;;;12.25;4.57;;;4.80;99.90;;;;;;4966071;29;20058;-92
2021/01/22 10:44:42;;;;;;;8.63;4.13;;;4.80;99.90;;;;;;4966088;29;20138;-96
2021/01/22 10:47:10;;;;;;;12.13;4.10;;;4.90;99.90;;;;;;4966671;28;20035;-95
2021/01/22 10:49:37;;;;;;;9.88;4.18;;;5.10;99.90;;;;;;4966000;29;20066;-94
2021/01/22 10:52:03;;;;;;;10.77;4.28;;;5.20;99.90;;;;;;4965884;28;20031;-96
2021/01/22 10:54:29;;;;;;;13.48;4.93;;;5.20;99.90;;;;;;4950082;29;20031;-91
2021/01/22 10:56:55;;;;;;;14.07;4.25;;;5.30;99.90;;;;;;4965799;28;20037;-93
2021/01/22 10:59:20;;;;;;;13.00;3.47;;;5.30;99.90;;;;;;4950149;29;20031;-93
2021/01/22 11:01:56;;;;;;;11.20;4.70;;;5.30;99.90;;;;;;4950209;29;20035;-95
2021/01/22 11:04:24;;;;;;;11.50;3.88;;;5.40;99.90;;;;;;4949513;28;20102;-94
2021/01/22 11:06:50;;;;;;;7.40;3.63;;;5.50;99.90;;;;;;4950267;28;20054;-91
2021/01/22 11:09:15;;;;;;;10.77;3.58;;;5.60;99.90;;;;;;4965544;29;20057;-93
2021/01/22 11:11:41;;;;;;;9.43;2.70;;;5.70;99.90;;;;;;4949817;29;20395;-94
2021/01/22 11:14:07;;;;;;;10.20;2.90;;;5.80;99.90;;;;;;4966578;28;20424;-92
2021/01/22 11:16:33;;;;;;;7.20;2.55;;;5.80;99.90;;;;;;4953143;29;20035;-92
2021/01/22 11:18:58;;;;;;;11.82;3.10;;;5.90;99.90;;;;;;4952795;29;20054;-91
2021/01/22 11:21:24;;;;;;;6.60;2.58;;;6.10;99.90;;;;;;4953127;29;20039;-93
2021/01/22 11:24:06;;;;;;;9.27;3.17;;;6.30;99.90;;;;;;4952259;28;20175;-94
2021/01/22 11:26:37;;;;;;;11.45;3.28;;;6.30;99.90;;;;;;4968967;29;20047;-94
2021/01/22 11:29:09;;;;;;;9.70;3.05;;;6.20;99.90;;;;;;4984924;28;20058;-94
2021/01/22 11:31:34;;;;;;;11.15;3.88;;;6.40;99.90;;;;;;4968651;29;20070;-92
2021/01/22 11:34:00;;;;;;;9.15;2.72;;;6.30;99.90;;;;;;4968916;29;20035;-92
2021/01/22 11:36:25;;;;;;;8.55;2.22;;;6.30;99.90;;;;;;4968904;29;20028;-92
2021/01/22 11:38:54;;;;;;;8.95;2.53;;;6.40;99.90;;;;;;4968462;29;20034;-94
2021/01/22 11:41:22;;;;;;;7.93;2.90;;;6.30;99.90;;;;;;4968984;28;20070;-92
2021/01/22 11:43:48;;;;;;;11.30;3.08;;;6.40;99.90;;;;;;4982904;28;20063;-93
2021/01/22 11:46:14;;;;;;;7.78;2.03;;;6.50;99.90;;;;;;4985070;28;20127;-93
2021/01/22 11:48:43;;;;;;;11.75;3.50;;;6.50;99.90;;;;;;4984973;28;20032;-93
2021/01/22 11:51:09;;;;;;;8.68;2.15;;;6.20;99.90;;;;;;4957537;29;20095;-94
2021/01/22 11:53:36;;;;;;;11.60;3.38;;;6.10;99.90;;;;;;4970665;28;20043;-94
2021/01/22 11:56:02;;;;;;;8.18;2.03;;;6.10;99.90;;;;;;4987916;28;20035;-89
2021/01/22 11:58:27;;;;;;;6.97;2.78;;;6.20;99.90;;;;;;4987840;28;20080;-91
2021/01/22 12:00:53;;;;;;;10.65;2.90;;;6.10;99.90;;;;;;4987816;28;20066;-93
2021/01/22 12:03:19;;;;;;;8.10;2.75;;;6.10;99.90;;;;;;4987612;28;20049;-91
2021/01/22 12:05:45;;;;;;;8.50;2.70;;;6.10;99.90;;;;;;4972422;28;20051;-91
2021/01/22 12:08:10;;;;;;;7.65;2.65;;;6.00;99.90;;;;;;4984913;28;20488;-91
2021/01/22 12:10:47;;;;;;;9.40;2.83;;;6.10;99.90;;;;;;4985937;28;20035;-94
2021/01/22 12:13:12;;;;;;;7.82;2.58;;;6.20;99.90;;;;;;4969037;29;20032;-91
2021/01/22 12:15:38;;;;;;;7.60;2.75;;;6.30;99.90;;;;;;4984733;28;20496;-90
2021/01/22 12:18:04;;;;;;;8.50;2.22;;;6.30;99.90;;;;;;4968035;29;20066;-94
2021/01/22 12:20:33;;;;;;;6.00;2.47;;;6.30;99.90;;;;;;4967907;29;20035;-93
2021/01/22 12:22:59;;;;;;;6.95;1.85;;;6.50;99.90;;;;;;4967838;29;20099;-92
2021/01/22 12:25:26;;;;;;;8.02;3.05;;;6.60;99.90;;;;;;4983322;28;20039;-92
2021/01/22 12:27:52;;;;;;;7.25;1.50;;;6.50;99.90;;;;;;4967343;29;20031;-90
2021/01/22 12:30:27;;;;;;;7.88;1.98;;;6.70;99.90;;;;;;4967661;29;20042;-94
2021/01/22 12:32:53;;;;;;;8.55;2.40;;;6.80;99.90;;;;;;4951885;29;20102;-92
2021/01/22 12:35:21;;;;;;;8.93;1.35;;;6.70;99.90;;;;;;4967647;29;20031;-93
2021/01/22 12:37:48;;;;;;;5.45;1.20;;;6.70;99.90;;;;;;4967819;29;20031;-92
2021/01/22 12:40:15;;;;;;;12.27;1.40;;;6.70;99.90;;;;;;4951642;29;20110;-90
2021/01/22 12:42:40;;;;;;;11.40;1.80;;;6.70;99.90;;;;;;4951182;29;20441;-91
2021/01/22 12:45:06;;;;;;;9.20;1.25;;;6.70;99.90;;;;;;4967479;28;20051;-92
2021/01/22 12:47:32;;;;;;;7.03;1.02;;;6.60;99.90;;;;;;4951239;29;20172;-92
2021/01/22 12:49:58;;;;;;;5.43;0.95;;;6.60;99.90;;;;;;4967429;28;20047;-91
2021/01/22 12:52:23;;;;;;;7.20;1.15;;;6.50;99.90;;;;;;4975695;28;20027;-91
2021/01/22 12:54:49;;;;;;;7.80;0.80;;;6.40;99.90;;;;;;4986564;28;20471;-92
2021/01/22 12:57:15;;;;;;;4.20;0.70;;;6.50;99.90;;;;;;4986478;28;20479;-91
2021/01/22 12:59:40;;;;;;;6.03;0.73;;;6.70;99.90;;;;;;4986532;28;20039;-92